createdAt,value
2023-08-13T11:43:12.581Z,1016.2
2023-08-13T12:11:36.607Z,1015.6
2023-08-13T12:17:18.647Z,1015.9
2023-08-13T12:22:42.325Z,1015.8
2023-08-13T12:28:16.983Z,1015.6
2023-08-13T12:34:07.751Z,1015.6
2023-08-13T12:39:43.338Z,1015.4
2023-08-13T12:45:28.982Z,1015.3
2023-08-13T12:51:02.473Z,1015.3
2023-08-13T12:56:53.743Z,1015.5
2023-08-13T13:02:14.027Z,1015.3
2023-08-13T13:07:50.165Z,1015.5
2023-08-13T13:19:08.482Z,1015.4
2023-08-13T13:25:06.202Z,1015.5
2023-08-13T13:30:35.224Z,1015.5
2023-08-13T13:36:13.056Z,1015.4
2023-08-13T13:41:55.415Z,1015.4
2023-08-13T13:47:22.417Z,1015.4
2023-08-13T13:52:56.221Z,1015.5
2023-08-13T13:58:24.801Z,1015.8
2023-08-13T14:04:29.041Z,1015.9
2023-08-13T14:09:53.741Z,1015.6
2023-08-13T14:15:28.579Z,1015.4
2023-08-13T14:20:56.804Z,1015.8
2023-08-13T14:26:28.131Z,1016.2
2023-08-13T14:32:06.827Z,1016.5
2023-08-13T14:37:43.882Z,1016.3
2023-08-13T14:43:25.426Z,1016.6
2023-08-13T14:48:55.904Z,1016.5
2023-08-13T14:54:40.036Z,1016.5
2023-08-13T15:00:15.392Z,1016.4
2023-08-13T15:05:53.847Z,1016.7
2023-08-13T15:11:40.550Z,1016.8
2023-08-13T15:17:09.991Z,1016.6
2023-08-13T15:22:36.255Z,1016.6
2023-08-13T15:28:09.666Z,1016.6
2023-08-13T15:33:38.338Z,1016.5
2023-08-13T15:39:31.954Z,1016.6
2023-08-13T15:45:05.681Z,1016.8
2023-08-13T15:50:49.710Z,1016.7
2023-08-13T15:56:11.388Z,1016.8
2023-08-13T16:01:45.568Z,1016.7
2023-08-13T16:07:17.560Z,1016.7
2023-08-13T16:12:53.539Z,1016.5
2023-08-13T16:18:28.320Z,1016.5
2023-08-13T16:29:35.288Z,1016.4
2023-08-13T16:35:26.334Z,1016.4
2023-08-13T16:41:01.717Z,1016.4
2023-08-13T16:46:32.861Z,1016.2
2023-08-13T16:52:14.934Z,1015.9
2023-08-13T16:57:44.595Z,1015.6
2023-08-13T17:03:56.507Z,1015.7
2023-08-13T17:14:41.321Z,1015.9
2023-08-13T17:20:07.535Z,1015.9
2023-08-13T17:25:39.009Z,1016
2023-08-13T17:31:17.144Z,1016
2023-08-13T17:37:05.847Z,1016.2
2023-08-13T17:42:39.052Z,1016.4
2023-08-13T17:48:05.941Z,1016.6
2023-08-13T17:53:40.924Z,1016.6
2023-08-13T17:59:39.727Z,1016.7
2023-08-13T18:04:53.719Z,1017.2
2023-08-13T18:10:44.756Z,1017.6
2023-08-13T18:16:32.473Z,1017.8
2023-08-13T18:21:48.005Z,1017.8
2023-08-13T18:27:17.981Z,1017.9
2023-08-13T18:33:02.659Z,1017.9
2023-08-13T18:38:46.248Z,1018
2023-08-13T18:44:28.750Z,1017.9
2023-08-13T18:49:53.528Z,1018
2023-08-13T18:55:22.240Z,1018.2
2023-08-13T19:01:06.784Z,1018.3
2023-08-13T19:06:33.030Z,1018.2
2023-08-13T19:12:22.627Z,1018.3
2023-08-13T19:17:58.745Z,1018.3
2023-08-13T19:28:59.804Z,1018.2
2023-08-13T19:34:29.152Z,1018
2023-08-13T19:39:58.368Z,1018
2023-08-13T19:45:48.859Z,1018.1
2023-08-13T19:51:12.897Z,1018.5
2023-08-13T19:56:48.169Z,1018.6
2023-08-13T20:02:22.841Z,1018.6
2023-08-13T20:08:18.088Z,1018.4
2023-08-13T20:13:34.941Z,1018.4
2023-08-13T20:19:05.818Z,1018.4
2023-08-13T20:25:08.605Z,1018.5
2023-08-13T20:30:38.627Z,1018.5
2023-08-13T20:36:13.012Z,1018.8
2023-08-13T20:41:41.389Z,1018.7
2023-08-13T20:47:07.421Z,1018.7
2023-08-13T20:52:56.334Z,1018.7
2023-08-13T20:58:21.842Z,1018.7
2023-08-13T21:03:58.535Z,1018.7
2023-08-13T21:09:29.859Z,1018.9
2023-08-13T21:15:01.593Z,1018.7
2023-08-13T21:20:45.726Z,1018.5
2023-08-13T21:26:16.528Z,1018.6
2023-08-13T21:31:48.293Z,1018.8
2023-08-13T21:37:39.949Z,1018.8
2023-08-13T21:43:20.286Z,1018.9
2023-08-13T21:54:16.541Z,1018.9
2023-08-13T22:00:05.109Z,1018.8
2023-08-13T22:05:20.458Z,1018.9
2023-08-13T22:11:08.584Z,1018.9
2023-08-13T22:16:50.337Z,1019.1
2023-08-13T22:22:04.862Z,1018.9
2023-08-13T22:27:47.951Z,1018.9
2023-08-13T22:33:11.833Z,1019.2
2023-08-13T22:38:46.935Z,1019.2
2023-08-13T22:44:40.031Z,1019.2
2023-08-13T22:50:01.573Z,1019.3
2023-08-13T22:55:33.855Z,1019.3
2023-08-13T23:01:20.333Z,1019.4
2023-08-13T23:06:42.930Z,1019.1
2023-08-13T23:12:27.982Z,1019.1
2023-08-13T23:18:11.066Z,1019
2023-08-13T23:23:39.903Z,1019.1
2023-08-13T23:34:38.963Z,1019
2023-08-13T23:40:32.111Z,1018.9
2023-08-13T23:46:03.785Z,1019
2023-08-13T23:51:25.849Z,1019
2023-08-13T23:56:53.071Z,1019
